sensor_id;sensor_type;location;lat;lon;timestamp;pressure;altitude;pressure_sealevel;temperature;humidity
43420;BME280;29017;51.514;-0.178;2023-05-29T00:00:05;102196.34;;;13.82;66.73
43420;BME280;29017;51.514;-0.178;2023-05-29T00:02:36;102200.66;;;13.83;67.25
43420;BME280;29017;51.514;-0.178;2023-05-29T00:05:05;102204.44;;;13.81;67.01
43420;BME280;29017;51.514;-0.178;2023-05-29T00:07:33;102204.88;;;13.76;66.88
43420;BME280;29017;51.514;-0.178;2023-05-29T00:10:01;102205.00;;;13.75;67.42
43420;BME280;29017;51.514;-0.178;2023-05-29T00:12:29;102212.09;;;13.64;67.57
43420;BME280;29017;51.514;-0.178;2023-05-29T00:14:57;102205.41;;;13.51;67.94
43420;BME280;29017;51.514;-0.178;2023-05-29T00:17:24;102205.53;;;13.49;68.28
43420;BME280;29017;51.514;-0.178;2023-05-29T00:19:52;102209.44;;;13.45;68.22
43420;BME280;29017;51.514;-0.178;2023-05-29T00:22:20;102215.56;;;13.46;68.31
43420;BME280;29017;51.514;-0.178;2023-05-29T00:24:47;102211.50;;;13.42;68.24
43420;BME280;29017;51.514;-0.178;2023-05-29T00:27:15;102210.53;;;13.43;68.16
43420;BME280;29017;51.514;-0.178;2023-05-29T00:29:43;102226.41;;;13.43;68.41
43420;BME280;29017;51.514;-0.178;2023-05-29T00:32:11;102222.50;;;13.37;68.54
43420;BME280;29017;51.514;-0.178;2023-05-29T00:34:39;102221.66;;;13.37;68.78
43420;BME280;29017;51.514;-0.178;2023-05-29T00:37:07;102214.13;;;13.32;68.78
43420;BME280;29017;51.514;-0.178;2023-05-29T00:39:35;102214.97;;;13.33;68.98
43420;BME280;29017;51.514;-0.178;2023-05-29T00:42:03;102218.16;;;13.36;69.15
43420;BME280;29017;51.514;-0.178;2023-05-29T00:44:31;102209.28;;;13.37;68.84
43420;BME280;29017;51.514;-0.178;2023-05-29T00:46:59;102209.84;;;13.41;68.82
43420;BME280;29017;51.514;-0.178;2023-05-29T00:49:27;102200.50;;;13.37;68.82
43420;BME280;29017;51.514;-0.178;2023-05-29T00:51:55;102207.59;;;13.36;69.17
43420;BME280;29017;51.514;-0.178;2023-05-29T00:54:26;102198.84;;;13.36;69.27
43420;BME280;29017;51.514;-0.178;2023-05-29T00:56:56;102195.63;;;13.32;69.48
43420;BME280;29017;51.514;-0.178;2023-05-29T00:59:29;102203.72;;;13.31;69.44
43420;BME280;29017;51.514;-0.178;2023-05-29T01:01:58;102209.13;;;13.29;69.36
43420;BME280;29017;51.514;-0.178;2023-05-29T01:04:27;102194.78;;;13.22;69.57
43420;BME280;29017;51.514;-0.178;2023-05-29T01:06:54;102203.13;;;13.17;69.93
43420;BME280;29017;51.514;-0.178;2023-05-29T01:09:23;102205.56;;;13.09;70.25
43420;BME280;29017;51.514;-0.178;2023-05-29T01:14:29;102209.25;;;12.88;70.97
43420;BME280;29017;51.514;-0.178;2023-05-29T01:22:11;102209.41;;;12.96;70.85
43420;BME280;29017;51.514;-0.178;2023-05-29T01:27:15;102212.22;;;13.04;70.90
43420;BME280;29017;51.514;-0.178;2023-05-29T01:29:48;102212.47;;;13.01;70.69
43420;BME280;29017;51.514;-0.178;2023-05-29T01:32:18;102208.47;;;13.06;70.59
43420;BME280;29017;51.514;-0.178;2023-05-29T01:34:47;102192.06;;;13.03;70.37
43420;BME280;29017;51.514;-0.178;2023-05-29T01:37:14;102201.09;;;13.00;70.71
43420;BME280;29017;51.514;-0.178;2023-05-29T01:39:42;102191.34;;;13.01;70.68
43420;BME280;29017;51.514;-0.178;2023-05-29T01:42:10;102190.13;;;13.05;70.79
43420;BME280;29017;51.514;-0.178;2023-05-29T01:44:38;102201.53;;;13.05;70.80
43420;BME280;29017;51.514;-0.178;2023-05-29T01:47:05;102208.03;;;13.01;70.86
43420;BME280;29017;51.514;-0.178;2023-05-29T01:49:34;102202.06;;;12.99;70.80
43420;BME280;29017;51.514;-0.178;2023-05-29T01:52:04;102196.19;;;12.96;71.26
43420;BME280;29017;51.514;-0.178;2023-05-29T01:54:31;102201.47;;;12.96;71.35
43420;BME280;29017;51.514;-0.178;2023-05-29T01:56:59;102202.59;;;12.93;71.55
43420;BME280;29017;51.514;-0.178;2023-05-29T01:59:29;102201.03;;;12.91;71.55
43420;BME280;29017;51.514;-0.178;2023-05-29T02:01:57;102199.53;;;12.88;71.40
43420;BME280;29017;51.514;-0.178;2023-05-29T02:04:24;102197.00;;;12.86;71.86
43420;BME280;29017;51.514;-0.178;2023-05-29T02:06:52;102200.50;;;12.87;72.21
43420;BME280;29017;51.514;-0.178;2023-05-29T02:09:20;102194.50;;;12.85;71.81
43420;BME280;29017;51.514;-0.178;2023-05-29T02:11:49;102195.22;;;12.87;71.93
43420;BME280;29017;51.514;-0.178;2023-05-29T02:14:17;102190.72;;;12.78;72.08
43420;BME280;29017;51.514;-0.178;2023-05-29T02:16:45;102182.09;;;12.76;72.00
43420;BME280;29017;51.514;-0.178;2023-05-29T02:19:13;102188.63;;;12.72;72.45
43420;BME280;29017;51.514;-0.178;2023-05-29T02:21:40;102188.72;;;12.70;73.02
43420;BME280;29017;51.514;-0.178;2023-05-29T02:24:08;102182.78;;;12.68;72.57
43420;BME280;29017;51.514;-0.178;2023-05-29T02:26:35;102197.06;;;12.66;72.57
43420;BME280;29017;51.514;-0.178;2023-05-29T02:29:04;102191.34;;;12.61;72.90
43420;BME280;29017;51.514;-0.178;2023-05-29T02:31:33;102193.00;;;12.62;72.86
43420;BME280;29017;51.514;-0.178;2023-05-29T02:34:00;102191.63;;;12.58;72.93
43420;BME280;29017;51.514;-0.178;2023-05-29T02:36:27;102193.28;;;12.59;72.64
43420;BME280;29017;51.514;-0.178;2023-05-29T02:38:55;102193.97;;;12.61;72.99
43420;BME280;29017;51.514;-0.178;2023-05-29T02:41:22;102193.84;;;12.62;72.66
43420;BME280;29017;51.514;-0.178;2023-05-29T02:43:50;102197.47;;;12.61;72.12
43420;BME280;29017;51.514;-0.178;2023-05-29T02:46:17;102193.97;;;12.61;74.22
43420;BME280;29017;51.514;-0.178;2023-05-29T02:48:45;102191.22;;;12.62;74.34
43420;BME280;29017;51.514;-0.178;2023-05-29T02:51:13;102189.97;;;12.66;76.12
43420;BME280;29017;51.514;-0.178;2023-05-29T02:53:41;102180.66;;;12.62;72.82
43420;BME280;29017;51.514;-0.178;2023-05-29T02:56:09;102197.75;;;12.58;72.64
43420;BME280;29017;51.514;-0.178;2023-05-29T02:58:36;102194.25;;;12.58;73.42
43420;BME280;29017;51.514;-0.178;2023-05-29T03:01:03;102184.22;;;12.52;72.69
43420;BME280;29017;51.514;-0.178;2023-05-29T03:03:31;102189.78;;;12.49;72.84
43420;BME280;29017;51.514;-0.178;2023-05-29T03:05:59;102188.09;;;12.48;72.25
43420;BME280;29017;51.514;-0.178;2023-05-29T03:08:27;102186.41;;;12.47;73.25
43420;BME280;29017;51.514;-0.178;2023-05-29T03:10:55;102190.97;;;12.44;73.15
43420;BME280;29017;51.514;-0.178;2023-05-29T03:13:23;102195.16;;;12.47;72.67
43420;BME280;29017;51.514;-0.178;2023-05-29T03:15:51;102193.50;;;12.46;72.15
43420;BME280;29017;51.514;-0.178;2023-05-29T03:18:24;102190.41;;;12.41;72.32
43420;BME280;29017;51.514;-0.178;2023-05-29T03:20:51;102193.63;;;12.44;72.08
43420;BME280;29017;51.514;-0.178;2023-05-29T03:23:19;102198.41;;;12.30;72.21
43420;BME280;29017;51.514;-0.178;2023-05-29T03:25:46;102191.84;;;12.24;73.06
43420;BME280;29017;51.514;-0.178;2023-05-29T03:28:14;102193.22;;;12.19;73.32
43420;BME280;29017;51.514;-0.178;2023-05-29T03:30:42;102179.56;;;12.14;73.44
43420;BME280;29017;51.514;-0.178;2023-05-29T03:33:09;102190.25;;;12.12;73.41
43420;BME280;29017;51.514;-0.178;2023-05-29T03:35:36;102186.78;;;12.12;73.41
43420;BME280;29017;51.514;-0.178;2023-05-29T03:38:04;102182.44;;;12.11;73.75
43420;BME280;29017;51.514;-0.178;2023-05-29T03:40:32;102190.38;;;12.11;73.91
43420;BME280;29017;51.514;-0.178;2023-05-29T03:43:00;102191.09;;;12.13;73.43
43420;BME280;29017;51.514;-0.178;2023-05-29T03:45:27;102191.78;;;12.15;73.23
43420;BME280;29017;51.514;-0.178;2023-05-29T03:47:57;102190.13;;;12.14;73.30
43420;BME280;29017;51.514;-0.178;2023-05-29T03:50:24;102203.16;;;12.15;73.22
43420;BME280;29017;51.514;-0.178;2023-05-29T03:52:52;102193.84;;;12.11;73.39
43420;BME280;29017;51.514;-0.178;2023-05-29T03:55:20;102194.13;;;12.08;73.41
43420;BME280;29017;51.514;-0.178;2023-05-29T03:57:49;102194.63;;;12.02;73.71
43420;BME280;29017;51.514;-0.178;2023-05-29T04:00:16;102192.94;;;12.01;73.73
43420;BME280;29017;51.514;-0.178;2023-05-29T04:02:45;102196.03;;;12.06;73.26
43420;BME280;29017;51.514;-0.178;2023-05-29T04:05:13;102193.78;;;12.02;73.48
43420;BME280;29017;51.514;-0.178;2023-05-29T04:07:44;102194.16;;;11.97;73.61
43420;BME280;29017;51.514;-0.178;2023-05-29T04:10:12;102185.69;;;11.93;73.40
43420;BME280;29017;51.514;-0.178;2023-05-29T04:12:39;102184.84;;;11.93;73.70
43420;BME280;29017;51.514;-0.178;2023-05-29T04:15:08;102180.41;;;11.93;73.35
43420;BME280;29017;51.514;-0.178;2023-05-29T04:17:35;102193.06;;;11.99;74.16
43420;BME280;29017;51.514;-0.178;2023-05-29T04:20:04;102198.09;;;12.03;73.12
43420;BME280;29017;51.514;-0.178;2023-05-29T04:22:36;102205.88;;;12.04;73.09
43420;BME280;29017;51.514;-0.178;2023-05-29T04:25:05;102205.75;;;12.06;73.56
43420;BME280;29017;51.514;-0.178;2023-05-29T04:27:33;102201.88;;;12.10;73.04
43420;BME280;29017;51.514;-0.178;2023-05-29T04:30:05;102207.03;;;12.11;72.58
43420;BME280;29017;51.514;-0.178;2023-05-29T04:32:34;102208.00;;;12.10;72.55
43420;BME280;29017;51.514;-0.178;2023-05-29T04:35:02;102209.69;;;12.11;72.51
43420;BME280;29017;51.514;-0.178;2023-05-29T04:37:30;102212.44;;;12.10;72.65
43420;BME280;29017;51.514;-0.178;2023-05-29T04:39:59;102212.31;;;12.11;73.64
43420;BME280;29017;51.514;-0.178;2023-05-29T04:42:26;102213.03;;;12.13;72.41
43420;BME280;29017;51.514;-0.178;2023-05-29T04:44:54;102218.31;;;12.13;72.32
43420;BME280;29017;51.514;-0.178;2023-05-29T04:47:21;102214.00;;;12.12;72.78
43420;BME280;29017;51.514;-0.178;2023-05-29T04:49:49;102210.41;;;12.13;72.49
43420;BME280;29017;51.514;-0.178;2023-05-29T04:52:17;102214.84;;;12.13;72.65
43420;BME280;29017;51.514;-0.178;2023-05-29T04:54:45;102224.03;;;12.18;72.08
43420;BME280;29017;51.514;-0.178;2023-05-29T04:57:13;102219.59;;;12.19;71.71
43420;BME280;29017;51.514;-0.178;2023-05-29T04:59:40;102217.78;;;12.19;72.29
43420;BME280;29017;51.514;-0.178;2023-05-29T05:02:08;102226.41;;;12.21;72.03
43420;BME280;29017;51.514;-0.178;2023-05-29T05:04:36;102222.81;;;12.22;72.01
43420;BME280;29017;51.514;-0.178;2023-05-29T05:07:05;102223.50;;;12.24;72.21
43420;BME280;29017;51.514;-0.178;2023-05-29T05:09:32;102228.28;;;12.30;72.08
43420;BME280;29017;51.514;-0.178;2023-05-29T05:12:00;102230.28;;;12.38;71.43
43420;BME280;29017;51.514;-0.178;2023-05-29T05:14:28;102216.25;;;12.37;71.03
43420;BME280;29017;51.514;-0.178;2023-05-29T05:16:56;102214.28;;;12.39;71.13
43420;BME280;29017;51.514;-0.178;2023-05-29T05:19:24;102220.28;;;12.41;71.11
43420;BME280;29017;51.514;-0.178;2023-05-29T05:21:52;102218.09;;;12.47;70.99
43420;BME280;29017;51.514;-0.178;2023-05-29T05:24:20;102231.47;;;12.55;70.63
43420;BME280;29017;51.514;-0.178;2023-05-29T05:26:47;102226.91;;;12.57;70.46
43420;BME280;29017;51.514;-0.178;2023-05-29T05:29:15;102238.75;;;12.62;70.14
43420;BME280;29017;51.514;-0.178;2023-05-29T05:31:46;102246.00;;;12.70;69.39
43420;BME280;29017;51.514;-0.178;2023-05-29T05:34:14;102240.88;;;12.68;69.64
43420;BME280;29017;51.514;-0.178;2023-05-29T05:36:41;102242.16;;;12.74;69.24
43420;BME280;29017;51.514;-0.178;2023-05-29T05:39:09;102244.78;;;12.74;69.26
43420;BME280;29017;51.514;-0.178;2023-05-29T05:41:37;102246.31;;;12.76;69.23
43420;BME280;29017;51.514;-0.178;2023-05-29T05:44:05;102248.72;;;12.79;69.19
43420;BME280;29017;51.514;-0.178;2023-05-29T05:46:32;102251.59;;;12.76;69.35
43420;BME280;29017;51.514;-0.178;2023-05-29T05:49:00;102250.91;;;12.74;69.52
43420;BME280;29017;51.514;-0.178;2023-05-29T05:51:27;102253.41;;;12.76;69.36
43420;BME280;29017;51.514;-0.178;2023-05-29T05:53:55;102263.53;;;12.71;69.65
43420;BME280;29017;51.514;-0.178;2023-05-29T05:56:22;102259.66;;;12.75;69.73
43420;BME280;29017;51.514;-0.178;2023-05-29T05:58:51;102253.13;;;12.69;69.43
43420;BME280;29017;51.514;-0.178;2023-05-29T06:01:18;102254.25;;;12.76;69.38
43420;BME280;29017;51.514;-0.178;2023-05-29T06:03:46;102252.88;;;12.82;69.17
43420;BME280;29017;51.514;-0.178;2023-05-29T06:06:14;102260.28;;;12.88;69.34
43420;BME280;29017;51.514;-0.178;2023-05-29T06:08:44;102262.66;;;12.91;69.05
43420;BME280;29017;51.514;-0.178;2023-05-29T06:11:12;102278.69;;;12.99;67.89
43420;BME280;29017;51.514;-0.178;2023-05-29T06:13:40;102258.50;;;13.19;67.09
43420;BME280;29017;51.514;-0.178;2023-05-29T06:16:09;102278.00;;;13.37;65.89
43420;BME280;29017;51.514;-0.178;2023-05-29T06:18:38;102273.88;;;13.44;65.65
43420;BME280;29017;51.514;-0.178;2023-05-29T06:21:06;102278.19;;;13.45;66.13
43420;BME280;29017;51.514;-0.178;2023-05-29T06:23:35;102269.31;;;13.56;65.42
43420;BME280;29017;51.514;-0.178;2023-05-29T06:26:04;102276.00;;;13.60;65.22
43420;BME280;29017;51.514;-0.178;2023-05-29T06:28:34;102276.00;;;13.60;64.64
43420;BME280;29017;51.514;-0.178;2023-05-29T06:31:02;102276.91;;;13.40;65.38
43420;BME280;29017;51.514;-0.178;2023-05-29T06:33:30;102295.16;;;13.43;65.70
43420;BME280;29017;51.514;-0.178;2023-05-29T06:35:59;102288.19;;;13.42;65.57
43420;BME280;29017;51.514;-0.178;2023-05-29T06:38:30;102285.31;;;13.54;65.01
43420;BME280;29017;51.514;-0.178;2023-05-29T06:41:00;102288.81;;;13.64;65.46
43420;BME280;29017;51.514;-0.178;2023-05-29T06:43:28;102290.59;;;13.64;64.71
43420;BME280;29017;51.514;-0.178;2023-05-29T06:45:56;102288.94;;;13.63;64.52
43420;BME280;29017;51.514;-0.178;2023-05-29T06:48:24;102284.53;;;13.33;64.77
43420;BME280;29017;51.514;-0.178;2023-05-29T06:50:52;102286.47;;;13.31;64.13
43420;BME280;29017;51.514;-0.178;2023-05-29T06:53:19;102279.81;;;13.37;63.93
43420;BME280;29017;51.514;-0.178;2023-05-29T06:55:48;102288.47;;;13.48;64.35
43420;BME280;29017;51.514;-0.178;2023-05-29T06:58:16;102286.69;;;13.58;62.87
43420;BME280;29017;51.514;-0.178;2023-05-29T07:00:44;102297.72;;;13.63;62.80
43420;BME280;29017;51.514;-0.178;2023-05-29T07:03:12;102286.47;;;13.71;62.30
43420;BME280;29017;51.514;-0.178;2023-05-29T07:05:40;102292.28;;;13.65;61.88
43420;BME280;29017;51.514;-0.178;2023-05-29T07:08:08;102281.84;;;13.63;62.09
43420;BME280;29017;51.514;-0.178;2023-05-29T07:10:35;102279.06;;;13.65;62.32
43420;BME280;29017;51.514;-0.178;2023-05-29T07:13:03;102284.19;;;13.66;62.21
43420;BME280;29017;51.514;-0.178;2023-05-29T07:15:34;102288.25;;;13.61;61.99
43420;BME280;29017;51.514;-0.178;2023-05-29T07:18:04;102276.97;;;13.68;61.76
43420;BME280;29017;51.514;-0.178;2023-05-29T07:20:32;102269.75;;;13.80;62.08
43420;BME280;29017;51.514;-0.178;2023-05-29T07:23:00;102269.75;;;13.99;60.94
43420;BME280;29017;51.514;-0.178;2023-05-29T07:25:29;102271.44;;;14.10;60.96
43420;BME280;29017;51.514;-0.178;2023-05-29T07:27:57;102276.28;;;14.24;59.86
43420;BME280;29017;51.514;-0.178;2023-05-29T07:30:40;102273.22;;;14.38;59.41
43420;BME280;29017;51.514;-0.178;2023-05-29T07:33:08;102276.28;;;14.43;59.28
43420;BME280;29017;51.514;-0.178;2023-05-29T07:35:36;102291.91;;;14.46;59.38
43420;BME280;29017;51.514;-0.178;2023-05-29T07:38:04;102287.53;;;14.65;59.20
43420;BME280;29017;51.514;-0.178;2023-05-29T07:40:32;102290.91;;;15.04;58.58
43420;BME280;29017;51.514;-0.178;2023-05-29T07:43:00;102287.69;;;15.37;57.15
43420;BME280;29017;51.514;-0.178;2023-05-29T07:45:27;102293.03;;;15.64;56.78
43420;BME280;29017;51.514;-0.178;2023-05-29T07:47:56;102290.03;;;16.20;55.64
43420;BME280;29017;51.514;-0.178;2023-05-29T07:50:26;102308.78;;;16.37;53.93
43420;BME280;29017;51.514;-0.178;2023-05-29T07:52:53;102302.06;;;16.07;54.05
43420;BME280;29017;51.514;-0.178;2023-05-29T07:55:23;102301.41;;;15.32;55.58
43420;BME280;29017;51.514;-0.178;2023-05-29T07:57:51;102296.91;;;15.06;57.45
43420;BME280;29017;51.514;-0.178;2023-05-29T08:00:19;102298.41;;;14.71;58.36
43420;BME280;29017;51.514;-0.178;2023-05-29T08:02:47;102304.88;;;14.49;58.56
43420;BME280;29017;51.514;-0.178;2023-05-29T08:05:17;102289.97;;;14.39;59.33
43420;BME280;29017;51.514;-0.178;2023-05-29T08:07:48;102290.63;;;14.60;58.83
43420;BME280;29017;51.514;-0.178;2023-05-29T08:10:16;102296.84;;;14.88;58.33
43420;BME280;29017;51.514;-0.178;2023-05-29T08:12:44;102308.38;;;15.33;56.29
43420;BME280;29017;51.514;-0.178;2023-05-29T08:15:12;102304.38;;;15.57;55.50
43420;BME280;29017;51.514;-0.178;2023-05-29T08:17:44;102310.53;;;15.75;54.19
43420;BME280;29017;51.514;-0.178;2023-05-29T08:20:12;102310.31;;;15.86;53.99
43420;BME280;29017;51.514;-0.178;2023-05-29T08:22:41;102310.63;;;15.83;54.10
43420;BME280;29017;51.514;-0.178;2023-05-29T08:25:08;102309.91;;;15.63;54.81
43420;BME280;29017;51.514;-0.178;2023-05-29T08:27:36;102302.72;;;15.46;55.04
43420;BME280;29017;51.514;-0.178;2023-05-29T08:30:10;102291.94;;;15.57;55.03
43420;BME280;29017;51.514;-0.178;2023-05-29T08:32:41;102299.44;;;15.62;55.05
43420;BME280;29017;51.514;-0.178;2023-05-29T08:35:21;102298.78;;;15.77;54.34
43420;BME280;29017;51.514;-0.178;2023-05-29T08:37:55;102300.84;;;15.83;54.48
43420;BME280;29017;51.514;-0.178;2023-05-29T08:40:23;102302.97;;;15.98;54.07
43420;BME280;29017;51.514;-0.178;2023-05-29T08:42:56;102309.50;;;16.03;53.53
43420;BME280;29017;51.514;-0.178;2023-05-29T08:45:26;102305.56;;;15.90;53.84
43420;BME280;29017;51.514;-0.178;2023-05-29T08:47:57;102299.47;;;15.79;54.90
43420;BME280;29017;51.514;-0.178;2023-05-29T08:50:26;102302.88;;;15.72;55.46
43420;BME280;29017;51.514;-0.178;2023-05-29T08:52:56;102310.06;;;15.62;55.15
43420;BME280;29017;51.514;-0.178;2023-05-29T08:55:26;102310.44;;;15.67;54.96
43420;BME280;29017;51.514;-0.178;2023-05-29T08:57:58;102304.63;;;15.63;55.59
43420;BME280;29017;51.514;-0.178;2023-05-29T09:00:27;102315.06;;;15.65;55.46
43420;BME280;29017;51.514;-0.178;2023-05-29T09:02:57;102310.91;;;15.62;55.65
43420;BME280;29017;51.514;-0.178;2023-05-29T09:05:27;102305.19;;;15.57;55.57
43420;BME280;29017;51.514;-0.178;2023-05-29T09:07:56;102312.84;;;15.60;55.93
43420;BME280;29017;51.514;-0.178;2023-05-29T09:10:28;102323.63;;;15.59;55.53
43420;BME280;29017;51.514;-0.178;2023-05-29T09:13:02;102316.72;;;15.66;54.81
43420;BME280;29017;51.514;-0.178;2023-05-29T09:15:32;102321.91;;;15.67;54.81
43420;BME280;29017;51.514;-0.178;2023-05-29T09:18:02;102312.78;;;15.52;54.16
43420;BME280;29017;51.514;-0.178;2023-05-29T09:20:33;102340.28;;;15.51;53.95
43420;BME280;29017;51.514;-0.178;2023-05-29T09:23:07;102325.94;;;15.34;54.32
43420;BME280;29017;51.514;-0.178;2023-05-29T09:25:41;102315.81;;;15.57;54.54
43420;BME280;29017;51.514;-0.178;2023-05-29T09:28:18;102335.31;;;15.66;54.65
43420;BME280;29017;51.514;-0.178;2023-05-29T09:30:47;102328.44;;;15.73;54.03
43420;BME280;29017;51.514;-0.178;2023-05-29T09:33:19;102331.16;;;15.81;54.18
43420;BME280;29017;51.514;-0.178;2023-05-29T09:35:49;102317.44;;;15.86;54.33
43420;BME280;29017;51.514;-0.178;2023-05-29T09:38:18;102330.31;;;15.63;54.63
43420;BME280;29017;51.514;-0.178;2023-05-29T09:41:05;102328.28;;;15.74;54.67
43420;BME280;29017;51.514;-0.178;2023-05-29T09:43:34;102331.16;;;15.63;54.05
43420;BME280;29017;51.514;-0.178;2023-05-29T09:46:01;102331.59;;;15.59;54.17
43420;BME280;29017;51.514;-0.178;2023-05-29T09:48:30;102325.31;;;15.50;54.68
43420;BME280;29017;51.514;-0.178;2023-05-29T09:50:57;102332.88;;;15.45;54.99
43420;BME280;29017;51.514;-0.178;2023-05-29T09:53:26;102318.09;;;15.43;55.02
43420;BME280;29017;51.514;-0.178;2023-05-29T09:55:56;102325.28;;;15.60;55.33
43420;BME280;29017;51.514;-0.178;2023-05-29T09:58:26;102320.25;;;15.84;54.15
43420;BME280;29017;51.514;-0.178;2023-05-29T10:00:56;102312.44;;;16.00;54.06
43420;BME280;29017;51.514;-0.178;2023-05-29T10:03:25;102323.03;;;16.36;52.32
43420;BME280;29017;51.514;-0.178;2023-05-29T10:05:57;102339.69;;;16.55;51.68
43420;BME280;29017;51.514;-0.178;2023-05-29T10:08:26;102326.38;;;16.55;51.60
43420;BME280;29017;51.514;-0.178;2023-05-29T10:11:00;102330.09;;;16.62;51.47
43420;BME280;29017;51.514;-0.178;2023-05-29T10:13:33;102349.09;;;16.67;51.40
43420;BME280;29017;51.514;-0.178;2023-05-29T10:16:04;102328.34;;;16.53;51.68
43420;BME280;29017;51.514;-0.178;2023-05-29T10:18:37;102337.25;;;16.62;51.12
43420;BME280;29017;51.514;-0.178;2023-05-29T10:21:08;102338.69;;;16.39;51.49
43420;BME280;29017;51.514;-0.178;2023-05-29T10:23:40;102343.88;;;16.40;51.75
43420;BME280;29017;51.514;-0.178;2023-05-29T10:26:20;102342.75;;;16.25;52.00
43420;BME280;29017;51.514;-0.178;2023-05-29T10:29:03;102336.72;;;16.05;52.81
43420;BME280;29017;51.514;-0.178;2023-05-29T10:31:43;102334.69;;;16.17;52.51
43420;BME280;29017;51.514;-0.178;2023-05-29T10:34:23;102340.59;;;16.29;52.74
43420;BME280;29017;51.514;-0.178;2023-05-29T10:37:06;102330.50;;;16.50;52.93
43420;BME280;29017;51.514;-0.178;2023-05-29T10:39:35;102343.00;;;16.57;52.08
43420;BME280;29017;51.514;-0.178;2023-05-29T10:44:53;102342.28;;;16.65;52.15
43420;BME280;29017;51.514;-0.178;2023-05-29T10:47:23;102347.25;;;16.68;52.04
43420;BME280;29017;51.514;-0.178;2023-05-29T10:49:51;102338.66;;;16.56;51.39
43420;BME280;29017;51.514;-0.178;2023-05-29T10:52:19;102328.31;;;16.45;52.01
43420;BME280;29017;51.514;-0.178;2023-05-29T10:54:51;102337.91;;;16.46;51.95
43420;BME280;29017;51.514;-0.178;2023-05-29T10:57:21;102331.69;;;16.55;51.99
43420;BME280;29017;51.514;-0.178;2023-05-29T10:59:57;102325.00;;;16.51;52.20
43420;BME280;29017;51.514;-0.178;2023-05-29T11:02:25;102317.41;;;16.56;52.26
43420;BME280;29017;51.514;-0.178;2023-05-29T11:10:11;102328.34;;;16.71;51.81
43420;BME280;29017;51.514;-0.178;2023-05-29T11:15:15;102335.97;;;16.31;52.92
43420;BME280;29017;51.514;-0.178;2023-05-29T11:17:43;102319.50;;;16.45;52.99
43420;BME280;29017;51.514;-0.178;2023-05-29T11:25:14;102330.97;;;16.45;52.96
43420;BME280;29017;51.514;-0.178;2023-05-29T11:27:44;102326.31;;;16.47;53.00
43420;BME280;29017;51.514;-0.178;2023-05-29T11:30:11;102330.13;;;16.45;52.94
43420;BME280;29017;51.514;-0.178;2023-05-29T11:32:40;102315.00;;;16.45;52.82
43420;BME280;29017;51.514;-0.178;2023-05-29T11:35:08;102334.13;;;16.49;52.84
43420;BME280;29017;51.514;-0.178;2023-05-29T11:37:37;102323.41;;;16.41;52.23
43420;BME280;29017;51.514;-0.178;2023-05-29T11:40:06;102337.31;;;16.52;52.68
43420;BME280;29017;51.514;-0.178;2023-05-29T11:42:43;102330.81;;;16.64;52.72
43420;BME280;29017;51.514;-0.178;2023-05-29T11:45:16;102335.53;;;16.79;52.02
43420;BME280;29017;51.514;-0.178;2023-05-29T11:50:20;102335.75;;;16.85;52.71
43420;BME280;29017;51.514;-0.178;2023-05-29T11:52:48;102330.44;;;16.85;52.02
43420;BME280;29017;51.514;-0.178;2023-05-29T11:55:15;102326.50;;;16.97;52.10
43420;BME280;29017;51.514;-0.178;2023-05-29T11:57:43;102330.81;;;16.90;51.15
43420;BME280;29017;51.514;-0.178;2023-05-29T12:00:13;102317.34;;;16.92;50.90
43420;BME280;29017;51.514;-0.178;2023-05-29T12:02:42;102320.53;;;16.95;51.30
43420;BME280;29017;51.514;-0.178;2023-05-29T12:05:10;102314.06;;;16.98;51.41
43420;BME280;29017;51.514;-0.178;2023-05-29T12:10:16;102310.28;;;17.08;51.05
43420;BME280;29017;51.514;-0.178;2023-05-29T12:12:47;102307.34;;;17.20;51.14
43420;BME280;29017;51.514;-0.178;2023-05-29T12:15:15;102297.56;;;17.28;50.11
43420;BME280;29017;51.514;-0.178;2023-05-29T12:17:45;102300.44;;;17.35;50.52
43420;BME280;29017;51.514;-0.178;2023-05-29T12:20:14;102293.97;;;17.45;50.30
43420;BME280;29017;51.514;-0.178;2023-05-29T12:22:42;102302.06;;;17.62;49.67
43420;BME280;29017;51.514;-0.178;2023-05-29T12:25:13;102296.41;;;17.65;50.05
43420;BME280;29017;51.514;-0.178;2023-05-29T12:27:43;102297.91;;;17.75;49.93
43420;BME280;29017;51.514;-0.178;2023-05-29T12:30:12;102296.59;;;17.79;49.01
43420;BME280;29017;51.514;-0.178;2023-05-29T12:32:54;102301.25;;;17.77;49.46
43420;BME280;29017;51.514;-0.178;2023-05-29T12:35:23;102288.56;;;17.63;50.03
43420;BME280;29017;51.514;-0.178;2023-05-29T12:40:23;102285.59;;;17.74;50.19
43420;BME280;29017;51.514;-0.178;2023-05-29T12:42:54;102276.28;;;17.78;50.23
43420;BME280;29017;51.514;-0.178;2023-05-29T12:45:24;102285.09;;;17.79;50.25
43420;BME280;29017;51.514;-0.178;2023-05-29T12:50:28;102291.44;;;17.94;48.98
43420;BME280;29017;51.514;-0.178;2023-05-29T12:55:31;102292.63;;;17.91;48.54
43420;BME280;29017;51.514;-0.178;2023-05-29T12:58:01;102300.25;;;17.78;49.08
43420;BME280;29017;51.514;-0.178;2023-05-29T13:00:28;102298.91;;;17.74;49.39
43420;BME280;29017;51.514;-0.178;2023-05-29T13:02:56;102291.41;;;17.78;49.37
43420;BME280;29017;51.514;-0.178;2023-05-29T13:05:24;102285.63;;;17.82;49.73
43420;BME280;29017;51.514;-0.178;2023-05-29T13:07:51;102290.13;;;17.90;49.99
43420;BME280;29017;51.514;-0.178;2023-05-29T13:10:20;102292.28;;;17.94;49.88
43420;BME280;29017;51.514;-0.178;2023-05-29T13:12:48;102305.13;;;18.07;48.94
43420;BME280;29017;51.514;-0.178;2023-05-29T13:15:22;102303.44;;;18.14;48.83
43420;BME280;29017;51.514;-0.178;2023-05-29T13:17:50;102292.28;;;18.19;48.90
43420;BME280;29017;51.514;-0.178;2023-05-29T13:20:18;102293.47;;;18.24;48.93
43420;BME280;29017;51.514;-0.178;2023-05-29T13:22:46;102290.81;;;17.92;49.41
43420;BME280;29017;51.514;-0.178;2023-05-29T13:25:16;102299.28;;;18.04;49.38
43420;BME280;29017;51.514;-0.178;2023-05-29T13:27:45;102277.31;;;18.10;49.50